Samaria, Indiana
Current Conditions -  °F | °C
As of 11:15 AM on Tuesday 21 Oct 2014 (Local Time) from K1II Reporting Station
Overcast Overcast  
Wind Chill: 54°   Ceiling: 3100
Heat Index: 54°   Visibility: 10mi
Dew Point: 45°   Wind: 9mph
Humidity: 72%   Direction: 340°NNW
Pressure: 30.09"   Gusts: NA
Location:  39.3709°N, 86.1938°W
Report Text: K1II 211515Z AUTO 34008KT 10SM SCT019 BKN031 OVC050 12/07 A3009 RMK AO2
Loading
Personal Weather Stations






























Interactive Weather Map
Tropical Storm Tracking
New forecast layout! Learn more

10-Day Weather Forecast

Advertisements
Track Severe Weather on mobile